PWSweather.com
Personal Weather Stations
Station Observations
WD4JKH
Forsyth, GA 31029

Forsyth, GA 31029

Lat: 33.033225, Lon: -83.927995

Elevation: 709

Station Type: Davis Vantage VUE

High Low Average
Temperature 86.5°F30.3°C 60.9°F16.1°C 74.7°F23.7°C
Dew Point 64.9°F18.3°C 53.5°F11.9°C 58.3°F14.6°C
Winds 6.3 mph 10.1 kmh Calm Calm 1.0 mph SE1.6 kmh SE
Wind Gusts 14.0 mph22.5 kmh -- 4.0 mph6.4 kmh
Humidity 88% 37% 59%
Pressure 30.25 in1024.4 mb 30.09 in1019.0 mb -
Precipitation 0.00 in0.0 mm - -
Hour Temp Dew Point Humidity Winds Wind Gusts Pressure Precip Precip Rate Daily Precip Total
12:04 AM 74.3°F23.5°C 56.2°F13.4°C 53% 2.1 mph SE3.4 kmh SE 6.0 mph9.7 kmh 30.22 in1023.4 mb 0.00 in0.0 mm 0.00 in0.0 mm 0.00 in0.0 mm
12:09 AM 74.2°F23.4°C 55.4°F13.0°C 52% 1.6 mph SE2.6 kmh SE 5.0 mph8.0 kmh 30.21 in1023.0 mb 0.00 in0.0 mm 0.00 in0.0 mm 0.00 in0.0 mm
12:14 AM 74.2°F23.4°C 55.6°F13.1°C 52% 1.3 mph SE2.1 kmh SE 5.0 mph8.0 kmh 30.21 in1023.0 mb 0.00 in0.0 mm 0.00 in0.0 mm 0.00 in0.0 mm
12:19 AM 74.1°F23.4°C 55.5°F13.1°C 52% 1.9 mph SE3.1 kmh SE 7.0 mph11.3 kmh 30.22 in1023.4 mb 0.00 in0.0 mm 0.00 in0.0 mm 0.00 in0.0 mm
12:24 AM 74.1°F23.4°C 55.5°F13.1°C 52% 3.5 mph SE5.6 kmh SE 10.0 mph16.1 kmh 30.21 in1023.0 mb 0.00 in0.0 mm 0.00 in0.0 mm 0.00 in0.0 mm
12:29 AM 74.0°F23.3°C 55.9°F13.3°C 53% 2.8 mph SE4.5 kmh SE 10.0 mph16.1 kmh 30.21 in1023.0 mb 0.00 in0.0 mm 0.00 in0.0 mm 0.00 in0.0 mm
12:34 AM 73.7°F23.2°C 56.7°F13.7°C 55% 3.0 mph SE4.8 kmh SE 10.0 mph16.1 kmh 30.21 in1023.0 mb 0.00 in0.0 mm 0.00 in0.0 mm 0.00 in0.0 mm
12:39 AM 73.3°F22.9°C 56.8°F13.8°C 56% 2.5 mph SSE4.0 kmh SSE 10.0 mph16.1 kmh 30.21 in1023.0 mb 0.00 in0.0 mm 0.00 in0.0 mm 0.00 in0.0 mm
12:44 AM 72.9°F22.7°C 56.8°F13.8°C 57% 1.5 mph SSE2.4 kmh SSE 10.0 mph16.1 kmh 30.21 in1023.0 mb 0.00 in0.0 mm 0.00 in0.0 mm 0.00 in0.0 mm
12:49 AM 72.5°F22.5°C 57.4°F14.1°C 59% 1.6 mph S2.6 kmh S 7.0 mph11.3 kmh 30.21 in1023.0 mb 0.00 in0.0 mm 0.00 in0.0 mm 0.00 in0.0 mm
12:54 AM 72.1°F22.3°C 57.4°F14.1°C 60% 2.1 mph SSE3.4 kmh SSE 7.0 mph11.3 kmh 30.21 in1023.0 mb 0.00 in0.0 mm 0.00 in0.0 mm 0.00 in0.0 mm
12:59 AM 71.9°F22.2°C 57.9°F14.4°C 61% 2.1 mph SSE3.4 kmh SSE 7.0 mph11.3 kmh 30.21 in1023.0 mb 0.00 in0.0 mm 0.00 in0.0 mm 0.00 in0.0 mm
01:04 AM 71.6°F22.0°C 57.6°F14.2°C 61% 2.2 mph SSE3.5 kmh SSE 7.0 mph11.3 kmh 30.21 in1023.0 mb 0.00 in0.0 mm 0.00 in0.0 mm 0.00 in0.0 mm
01:09 AM 71.4°F21.9°C 57.9°F14.4°C 62% 1.7 mph SSE2.7 kmh SSE 7.0 mph11.3 kmh 30.21 in1023.0 mb 0.00 in0.0 mm 0.00 in0.0 mm 0.00 in0.0 mm
01:14 AM 71.1°F21.7°C 58.1°F14.5°C 63% 2.0 mph SE3.2 kmh SE 7.0 mph11.3 kmh 30.21 in1023.0 mb 0.00 in0.0 mm 0.00 in0.0 mm 0.00 in0.0 mm
01:19 AM 70.8°F21.6°C 57.8°F14.3°C 63% 1.1 mph SE1.8 kmh SE 7.0 mph11.3 kmh 30.20 in1022.7 mb 0.00 in0.0 mm 0.00 in0.0 mm 0.00 in0.0 mm
01:24 AM 70.5°F21.4°C 57.9°F14.4°C 64% 2.2 mph S3.5 kmh S 7.0 mph11.3 kmh 30.20 in1022.7 mb 0.00 in0.0 mm 0.00 in0.0 mm 0.00 in0.0 mm
01:29 AM 70.3°F21.3°C 58.2°F14.6°C 65% 1.8 mph S2.9 kmh S 5.0 mph8.0 kmh 30.20 in1022.7 mb 0.00 in0.0 mm 0.00 in0.0 mm 0.00 in0.0 mm
01:34 AM 70.1°F21.2°C 58.4°F14.7°C 66% 1.6 mph S2.6 kmh S 5.0 mph8.0 kmh 30.20 in1022.7 mb 0.00 in0.0 mm 0.00 in0.0 mm 0.00 in0.0 mm
01:39 AM 69.8°F21.0°C 58.5°F14.7°C 67% 1.1 mph SE1.8 kmh SE 5.0 mph8.0 kmh 30.20 in1022.7 mb 0.00 in0.0 mm 0.00 in0.0 mm 0.00 in0.0 mm
01:44 AM 69.5°F20.8°C 58.2°F14.6°C 67% 1.8 mph SE2.9 kmh SE 5.0 mph8.0 kmh 30.20 in1022.7 mb 0.00 in0.0 mm 0.00 in0.0 mm 0.00 in0.0 mm
01:49 AM 69.3°F20.7°C 58.3°F14.6°C 68% 1.5 mph SSE2.4 kmh SSE 4.0 mph6.4 kmh 30.19 in1022.4 mb 0.00 in0.0 mm 0.00 in0.0 mm 0.00 in0.0 mm
01:54 AM 69.0°F20.6°C 58.6°F14.8°C 69% 1.2 mph SE1.9 kmh SE 4.0 mph6.4 kmh 30.20 in1022.7 mb 0.00 in0.0 mm 0.00 in0.0 mm 0.00 in0.0 mm
01:59 AM 68.8°F20.4°C 58.4°F14.7°C 69% 1.3 mph SE2.1 kmh SE 4.0 mph6.4 kmh 30.20 in1022.7 mb 0.00 in0.0 mm 0.00 in0.0 mm 0.00 in0.0 mm
02:04 AM 68.6°F20.3°C 58.6°F14.8°C 70% 1.6 mph SE2.6 kmh SE 4.0 mph6.4 kmh 30.20 in1022.7 mb 0.00 in0.0 mm 0.00 in0.0 mm 0.00 in0.0 mm
02:09 AM 68.4°F20.2°C 58.8°F14.9°C 71% Calm Calm 4.0 mph6.4 kmh 30.19 in1022.4 mb 0.00 in0.0 mm 0.00 in0.0 mm 0.00 in0.0 mm
02:14 AM 68.1°F20.1°C 58.5°F14.7°C 71% 1.0 mph SW1.6 kmh SW 4.0 mph6.4 kmh 30.19 in1022.4 mb 0.00 in0.0 mm 0.00 in0.0 mm 0.00 in0.0 mm
02:19 AM 67.7°F19.8°C 58.3°F14.6°C 72% Calm Calm 4.0 mph6.4 kmh 30.19 in1022.4 mb 0.00 in0.0 mm 0.00 in0.0 mm 0.00 in0.0 mm
02:24 AM 67.2°F19.6°C 58.2°F14.6°C 73% Calm Calm 1.0 mph1.6 kmh 30.19 in1022.4 mb 0.00 in0.0 mm 0.00 in0.0 mm 0.00 in0.0 mm
02:29 AM 66.7°F19.3°C 57.8°F14.3°C 73% Calm Calm 1.0 mph1.6 kmh 30.19 in1022.4 mb 0.00 in0.0 mm 0.00 in0.0 mm 0.00 in0.0 mm
02:34 AM 66.3°F19.1°C 57.8°F14.3°C 74% Calm Calm 1.0 mph1.6 kmh 30.19 in1022.4 mb 0.00 in0.0 mm 0.00 in0.0 mm 0.00 in0.0 mm
02:39 AM 65.9°F18.8°C 57.9°F14.4°C 75% Calm Calm 1.0 mph1.6 kmh 30.19 in1022.4 mb 0.00 in0.0 mm 0.00 in0.0 mm 0.00 in0.0 mm
02:44 AM 65.6°F18.7°C 57.8°F14.3°C 76% Calm Calm 1.0 mph1.6 kmh 30.19 in1022.4 mb 0.00 in0.0 mm 0.00 in0.0 mm 0.00 in0.0 mm
02:49 AM 65.3°F18.5°C 57.5°F14.2°C 76% Calm Calm 1.0 mph1.6 kmh 30.19 in1022.4 mb 0.00 in0.0 mm 0.00 in0.0 mm 0.00 in0.0 mm
02:54 AM 65.0°F18.3°C 57.6°F14.2°C 77% Calm Calm 1.0 mph1.6 kmh 30.19 in1022.4 mb 0.00 in0.0 mm 0.00 in0.0 mm 0.00 in0.0 mm
02:59 AM 64.7°F18.2°C 57.3°F14.1°C 77% Calm Calm -- 30.19 in1022.4 mb 0.00 in0.0 mm 0.00 in0.0 mm 0.00 in0.0 mm
03:04 AM 64.5°F18.1°C 57.5°F14.2°C 78% Calm Calm -- 30.19 in1022.4 mb 0.00 in0.0 mm 0.00 in0.0 mm 0.00 in0.0 mm
03:09 AM 64.4°F18.0°C 57.8°F14.3°C 79% Calm Calm -- 30.19 in1022.4 mb 0.00 in0.0 mm 0.00 in0.0 mm 0.00 in0.0 mm
03:14 AM 64.1°F17.8°C 57.5°F14.2°C 79% Calm Calm -- 30.19 in1022.4 mb 0.00 in0.0 mm 0.00 in0.0 mm 0.00 in0.0 mm
03:19 AM 64.1°F17.8°C 57.9°F14.4°C 80% Calm Calm -- 30.19 in1022.4 mb 0.00 in0.0 mm 0.00 in0.0 mm 0.00 in0.0 mm
03:24 AM 64.3°F17.9°C 58.1°F14.5°C 80% Calm Calm -- 30.19 in1022.4 mb 0.00 in0.0 mm 0.00 in0.0 mm 0.00 in0.0 mm
03:29 AM 64.7°F18.2°C 58.5°F14.7°C 80% 1.0 mph SW1.6 kmh SW 1.0 mph1.6 kmh 30.19 in1022.4 mb 0.00 in0.0 mm 0.00 in0.0 mm 0.00 in0.0 mm
03:34 AM 64.9°F18.3°C 58.3°F14.6°C 79% Calm Calm 1.0 mph1.6 kmh 30.19 in1022.4 mb 0.00 in0.0 mm 0.00 in0.0 mm 0.00 in0.0 mm
03:39 AM 65.0°F18.3°C 58.4°F14.7°C 79% 1.0 mph WSW1.6 kmh WSW 1.0 mph1.6 kmh 30.19 in1022.4 mb 0.00 in0.0 mm 0.00 in0.0 mm 0.00 in0.0 mm
03:44 AM 65.3°F18.5°C 58.4°F14.7°C 78% 1.0 mph WSW1.6 kmh WSW 1.0 mph1.6 kmh 30.19 in1022.4 mb 0.00 in0.0 mm 0.00 in0.0 mm 0.00 in0.0 mm
03:49 AM 65.4°F18.6°C 58.5°F14.7°C 78% Calm Calm 1.0 mph1.6 kmh 30.19 in1022.4 mb 0.00 in0.0 mm 0.00 in0.0 mm 0.00 in0.0 mm
03:54 AM 65.4°F18.6°C 58.8°F14.9°C 79% Calm Calm 1.0 mph1.6 kmh 30.19 in1022.4 mb 0.00 in0.0 mm 0.00 in0.0 mm 0.00 in0.0 mm
03:59 AM 65.4°F18.6°C 58.8°F14.9°C 79% 1.0 mph WSW1.6 kmh WSW 1.0 mph1.6 kmh 30.19 in1022.4 mb 0.00 in0.0 mm 0.00 in0.0 mm 0.00 in0.0 mm
04:04 AM 65.6°F18.7°C 59.3°F15.2°C 80% 1.5 mph SW2.4 kmh SW 2.0 mph3.2 kmh 30.19 in1022.4 mb 0.00 in0.0 mm 0.00 in0.0 mm 0.00 in0.0 mm
04:09 AM 65.5°F18.6°C 59.2°F15.1°C 80% 1.7 mph SW2.7 kmh SW 3.0 mph4.8 kmh 30.19 in1022.4 mb 0.00 in0.0 mm 0.00 in0.0 mm 0.00 in0.0 mm
04:14 AM 65.5°F18.6°C 59.2°F15.1°C 80% 1.0 mph SW1.6 kmh SW 3.0 mph4.8 kmh 30.19 in1022.4 mb 0.00 in0.0 mm 0.00 in0.0 mm 0.00 in0.0 mm
04:19 AM 65.4°F18.6°C 59.1°F15.1°C 80% 1.0 mph SW1.6 kmh SW 3.0 mph4.8 kmh 30.18 in1022.0 mb 0.00 in0.0 mm 0.00 in0.0 mm 0.00 in0.0 mm
04:24 AM 65.3°F18.5°C 59.4°F15.2°C 81% 1.0 mph SSW1.6 kmh SSW 3.0 mph4.8 kmh 30.18 in1022.0 mb 0.00 in0.0 mm 0.00 in0.0 mm 0.00 in0.0 mm
04:29 AM 65.3°F18.5°C 59.4°F15.2°C 81% 1.1 mph SW1.8 kmh SW 2.0 mph3.2 kmh 30.18 in1022.0 mb 0.00 in0.0 mm 0.00 in0.0 mm 0.00 in0.0 mm
04:34 AM 65.4°F18.6°C 59.5°F15.3°C 81% 1.0 mph WSW1.6 kmh WSW 2.0 mph3.2 kmh 30.18 in1022.0 mb 0.00 in0.0 mm 0.00 in0.0 mm 0.00 in0.0 mm
04:39 AM 65.6°F18.7°C 59.7°F15.4°C 81% 1.4 mph WSW2.3 kmh WSW 2.0 mph3.2 kmh 30.18 in1022.0 mb 0.00 in0.0 mm 0.00 in0.0 mm 0.00 in0.0 mm
04:43 AM 65.6°F18.7°C 59.7°F15.4°C 81% Calm Calm 2.0 mph3.2 kmh 30.18 in1022.0 mb 0.00 in0.0 mm 0.00 in0.0 mm 0.00 in0.0 mm
04:48 AM 65.4°F18.6°C 59.1°F15.1°C 80% 1.0 mph WSW1.6 kmh WSW 2.0 mph3.2 kmh 30.18 in1022.0 mb 0.00 in0.0 mm 0.00 in0.0 mm 0.00 in0.0 mm
04:53 AM 65.2°F18.4°C 58.9°F14.9°C 80% Calm Calm 2.0 mph3.2 kmh 30.18 in1022.0 mb 0.00 in0.0 mm 0.00 in0.0 mm 0.00 in0.0 mm
04:58 AM 64.9°F18.3°C 58.7°F14.8°C 80% Calm Calm 1.0 mph1.6 kmh 30.19 in1022.4 mb 0.00 in0.0 mm 0.00 in0.0 mm 0.00 in0.0 mm
05:03 AM 64.7°F18.2°C 58.8°F14.9°C 81% Calm Calm 1.0 mph1.6 kmh 30.19 in1022.4 mb 0.00 in0.0 mm 0.00 in0.0 mm 0.00 in0.0 mm
05:08 AM 64.3°F17.9°C 58.7°F14.8°C 82% Calm Calm -- 30.19 in1022.4 mb 0.00 in0.0 mm 0.00 in0.0 mm 0.00 in0.0 mm
05:13 AM 63.9°F17.7°C 58.3°F14.6°C 82% Calm Calm -- 30.19 in1022.4 mb 0.00 in0.0 mm 0.00 in0.0 mm 0.00 in0.0 mm
05:18 AM 63.5°F17.5°C 58.3°F14.6°C 83% Calm Calm -- 30.19 in1022.4 mb 0.00 in0.0 mm 0.00 in0.0 mm 0.00 in0.0 mm
05:23 AM 63.0°F17.2°C 58.1°F14.5°C 84% Calm Calm -- 30.19 in1022.4 mb 0.00 in0.0 mm 0.00 in0.0 mm 0.00 in0.0 mm
05:28 AM 62.8°F17.1°C 57.9°F14.4°C 84% Calm Calm -- 30.19 in1022.4 mb 0.00 in0.0 mm 0.00 in0.0 mm 0.00 in0.0 mm
05:33 AM 62.7°F17.1°C 58.1°F14.5°C 85% Calm Calm -- 30.19 in1022.4 mb 0.00 in0.0 mm 0.00 in0.0 mm 0.00 in0.0 mm
05:38 AM 62.6°F17.0°C 58.0°F14.4°C 85% Calm Calm -- 30.19 in1022.4 mb 0.00 in0.0 mm 0.00 in0.0 mm 0.00 in0.0 mm
05:43 AM 62.4°F16.9°C 57.8°F14.3°C 85% Calm Calm -- 30.19 in1022.4 mb 0.00 in0.0 mm 0.00 in0.0 mm 0.00 in0.0 mm
05:48 AM 62.4°F16.9°C 58.2°F14.6°C 86% Calm Calm -- 30.19 in1022.4 mb 0.00 in0.0 mm 0.00 in0.0 mm 0.00 in0.0 mm
05:53 AM 62.4°F16.9°C 58.2°F14.6°C 86% Calm Calm -- 30.20 in1022.7 mb 0.00 in0.0 mm 0.00 in0.0 mm 0.00 in0.0 mm
05:58 AM 62.4°F16.9°C 58.2°F14.6°C 86% Calm Calm -- 30.20 in1022.7 mb 0.00 in0.0 mm 0.00 in0.0 mm 0.00 in0.0 mm
06:03 AM 62.2°F16.8°C 58.0°F14.4°C 86% Calm Calm -- 30.20 in1022.7 mb 0.00 in0.0 mm 0.00 in0.0 mm 0.00 in0.0 mm
06:08 AM 62.0°F16.7°C 57.8°F14.3°C 86% Calm Calm -- 30.20 in1022.7 mb 0.00 in0.0 mm 0.00 in0.0 mm 0.00 in0.0 mm
06:13 AM 61.8°F16.6°C 57.9°F14.4°C 87% Calm Calm -- 30.20 in1022.7 mb 0.00 in0.0 mm 0.00 in0.0 mm 0.00 in0.0 mm
06:18 AM 62.0°F16.7°C 57.8°F14.3°C 86% Calm Calm -- 30.20 in1022.7 mb 0.00 in0.0 mm 0.00 in0.0 mm 0.00 in0.0 mm
06:23 AM 61.9°F16.6°C 57.7°F14.3°C 86% Calm Calm -- 30.20 in1022.7 mb 0.00 in0.0 mm 0.00 in0.0 mm 0.00 in0.0 mm
06:28 AM 61.7°F16.5°C 57.5°F14.2°C 86% Calm Calm -- 30.20 in1022.7 mb 0.00 in0.0 mm 0.00 in0.0 mm 0.00 in0.0 mm
06:33 AM 61.4°F16.3°C 57.2°F14.0°C 86% Calm Calm -- 30.20 in1022.7 mb 0.00 in0.0 mm 0.00 in0.0 mm 0.00 in0.0 mm
06:38 AM 61.2°F16.2°C 57.3°F14.1°C 87% Calm Calm -- 30.20 in1022.7 mb 0.00 in0.0 mm 0.00 in0.0 mm 0.00 in0.0 mm
06:43 AM 61.1°F16.2°C 57.2°F14.0°C 87% Calm Calm -- 30.20 in1022.7 mb 0.00 in0.0 mm 0.00 in0.0 mm 0.00 in0.0 mm
06:48 AM 60.9°F16.1°C 57.3°F14.1°C 88% Calm Calm -- 30.20 in1022.7 mb 0.00 in0.0 mm 0.00 in0.0 mm 0.00 in0.0 mm
06:53 AM 61.0°F16.1°C 57.4°F14.1°C 88% Calm Calm -- 30.20 in1022.7 mb 0.00 in0.0 mm 0.00 in0.0 mm 0.00 in0.0 mm
06:58 AM 61.1°F16.2°C 57.5°F14.2°C 88% Calm Calm -- 30.21 in1023.0 mb 0.00 in0.0 mm 0.00 in0.0 mm 0.00 in0.0 mm
07:03 AM 61.2°F16.2°C 57.6°F14.2°C 88% Calm Calm -- 30.21 in1023.0 mb 0.00 in0.0 mm 0.00 in0.0 mm 0.00 in0.0 mm
07:08 AM 61.1°F16.2°C 57.5°F14.2°C 88% Calm Calm -- 30.21 in1023.0 mb 0.00 in0.0 mm 0.00 in0.0 mm 0.00 in0.0 mm
07:13 AM 61.0°F16.1°C 57.4°F14.1°C 88% Calm Calm -- 30.20 in1022.7 mb 0.00 in0.0 mm 0.00 in0.0 mm 0.00 in0.0 mm
07:18 AM 61.1°F16.2°C 57.5°F14.2°C 88% Calm Calm -- 30.21 in1023.0 mb 0.00 in0.0 mm 0.00 in0.0 mm 0.00 in0.0 mm
07:23 AM 61.3°F16.3°C 57.7°F14.3°C 88% Calm Calm -- 30.21 in1023.0 mb 0.00 in0.0 mm 0.00 in0.0 mm 0.00 in0.0 mm
07:28 AM 61.4°F16.3°C 57.5°F14.2°C 87% Calm Calm -- 30.21 in1023.0 mb 0.00 in0.0 mm 0.00 in0.0 mm 0.00 in0.0 mm
07:33 AM 61.3°F16.3°C 57.7°F14.3°C 88% Calm Calm -- 30.21 in1023.0 mb 0.00 in0.0 mm 0.00 in0.0 mm 0.00 in0.0 mm
07:38 AM 61.2°F16.2°C 57.6°F14.2°C 88% Calm Calm -- 30.21 in1023.0 mb 0.00 in0.0 mm 0.00 in0.0 mm 0.00 in0.0 mm
07:43 AM 61.3°F16.3°C 57.7°F14.3°C 88% Calm Calm -- 30.21 in1023.0 mb 0.00 in0.0 mm 0.00 in0.0 mm 0.00 in0.0 mm
07:48 AM 61.5°F16.4°C 57.6°F14.2°C 87% Calm Calm -- 30.22 in1023.4 mb 0.00 in0.0 mm 0.00 in0.0 mm 0.00 in0.0 mm
07:53 AM 62.0°F16.7°C 58.1°F14.5°C 87% Calm Calm -- 30.22 in1023.4 mb 0.00 in0.0 mm 0.00 in0.0 mm 0.00 in0.0 mm
07:58 AM 62.7°F17.1°C 58.5°F14.7°C 86% Calm Calm -- 30.22 in1023.4 mb 0.00 in0.0 mm 0.00 in0.0 mm 0.00 in0.0 mm
08:03 AM 63.6°F17.6°C 59.0°F15.0°C 85% Calm Calm -- 30.22 in1023.4 mb 0.00 in0.0 mm 0.00 in0.0 mm 0.00 in0.0 mm
08:08 AM 64.5°F18.1°C 58.9°F14.9°C 82% Calm Calm -- 30.22 in1023.4 mb 0.00 in0.0 mm 0.00 in0.0 mm 0.00 in0.0 mm
08:13 AM 64.7°F18.2°C 58.8°F14.9°C 81% 1.0 mph W1.6 kmh W 1.0 mph1.6 kmh 30.22 in1023.4 mb 0.00 in0.0 mm 0.00 in0.0 mm 0.00 in0.0 mm
08:19 AM 64.7°F18.2°C 58.8°F14.9°C 81% Calm Calm 1.0 mph1.6 kmh 30.22 in1023.4 mb 0.00 in0.0 mm 0.00 in0.0 mm 0.00 in0.0 mm
08:23 AM 65.0°F18.3°C 59.1°F15.1°C 81% Calm Calm 1.0 mph1.6 kmh 30.22 in1023.4 mb 0.00 in0.0 mm 0.00 in0.0 mm 0.00 in0.0 mm
08:28 AM 65.2°F18.4°C 59.3°F15.2°C 81% 1.0 mph N1.6 kmh N 1.0 mph1.6 kmh 30.22 in1023.4 mb 0.00 in0.0 mm 0.00 in0.0 mm 0.00 in0.0 mm
08:34 AM 65.6°F18.7°C 59.3°F15.2°C 80% 1.0 mph NNE1.6 kmh NNE 1.0 mph1.6 kmh 30.22 in1023.4 mb 0.00 in0.0 mm 0.00 in0.0 mm 0.00 in0.0 mm
08:38 AM 65.8°F18.8°C 59.5°F15.3°C 80% 1.0 mph NNE1.6 kmh NNE 1.0 mph1.6 kmh 30.22 in1023.4 mb 0.00 in0.0 mm 0.00 in0.0 mm 0.00 in0.0 mm
08:44 AM 66.4°F19.1°C 60.0°F15.6°C 80% Calm Calm 1.0 mph1.6 kmh 30.22 in1023.4 mb 0.00 in0.0 mm 0.00 in0.0 mm 0.00 in0.0 mm
08:49 AM 67.0°F19.4°C 60.3°F15.7°C 79% 1.0 mph NNE1.6 kmh NNE 1.0 mph1.6 kmh 30.23 in1023.7 mb 0.00 in0.0 mm 0.00 in0.0 mm 0.00 in0.0 mm
08:53 AM 67.4°F19.7°C 60.4°F15.8°C 78% 1.0 mph NNE1.6 kmh NNE 1.0 mph1.6 kmh 30.23 in1023.7 mb 0.00 in0.0 mm 0.00 in0.0 mm 0.00 in0.0 mm
08:59 AM 68.0°F20.0°C 60.6°F15.9°C 77% Calm Calm 1.0 mph1.6 kmh 30.23 in1023.7 mb 0.00 in0.0 mm 0.00 in0.0 mm 0.00 in0.0 mm
09:04 AM 68.0°F20.0°C 60.6°F15.9°C 77% 1.0 mph NNE1.6 kmh NNE 1.0 mph1.6 kmh 30.24 in1024.0 mb 0.00 in0.0 mm 0.00 in0.0 mm 0.00 in0.0 mm
09:09 AM 68.1°F20.1°C 60.7°F15.9°C 77% 1.0 mph NE1.6 kmh NE 2.0 mph3.2 kmh 30.24 in1024.0 mb 0.00 in0.0 mm 0.00 in0.0 mm 0.00 in0.0 mm
09:14 AM 68.3°F20.2°C 60.9°F16.1°C 77% 1.0 mph N1.6 kmh N 2.0 mph3.2 kmh 30.24 in1024.0 mb 0.00 in0.0 mm 0.00 in0.0 mm 0.00 in0.0 mm
09:19 AM 68.7°F20.4°C 61.3°F16.3°C 77% Calm Calm 2.0 mph3.2 kmh 30.24 in1024.0 mb 0.00 in0.0 mm 0.00 in0.0 mm 0.00 in0.0 mm
09:24 AM 69.3°F20.7°C 61.5°F16.4°C 76% Calm Calm 2.0 mph3.2 kmh 30.24 in1024.0 mb 0.00 in0.0 mm 0.00 in0.0 mm 0.00 in0.0 mm
09:29 AM 69.7°F20.9°C 61.4°F16.3°C 75% Calm Calm 1.0 mph1.6 kmh 30.24 in1024.0 mb 0.00 in0.0 mm 0.00 in0.0 mm 0.00 in0.0 mm
09:34 AM 70.0°F21.1°C 61.7°F16.5°C 75% 1.0 mph NE1.6 kmh NE 1.0 mph1.6 kmh 30.24 in1024.0 mb 0.00 in0.0 mm 0.00 in0.0 mm 0.00 in0.0 mm
09:39 AM 70.1°F21.2°C 61.9°F16.6°C 75% 1.0 mph N1.6 kmh N 2.0 mph3.2 kmh 30.24 in1024.0 mb 0.00 in0.0 mm 0.00 in0.0 mm 0.00 in0.0 mm
09:43 AM 70.7°F21.5°C 62.5°F16.9°C 75% Calm Calm 2.0 mph3.2 kmh 30.25 in1024.4 mb 0.00 in0.0 mm 0.00 in0.0 mm 0.00 in0.0 mm
09:48 AM 71.5°F21.9°C 62.9°F17.2°C 74% 1.0 mph E1.6 kmh E 2.0 mph3.2 kmh 30.24 in1024.0 mb 0.00 in0.0 mm 0.00 in0.0 mm 0.00 in0.0 mm
09:53 AM 72.3°F22.4°C 63.3°F17.4°C 73% Calm Calm 1.0 mph1.6 kmh 30.24 in1024.0 mb 0.00 in0.0 mm 0.00 in0.0 mm 0.00 in0.0 mm
09:58 AM 72.6°F22.6°C 63.6°F17.6°C 73% 1.0 mph SW1.6 kmh SW 2.0 mph3.2 kmh 30.24 in1024.0 mb 0.00 in0.0 mm 0.00 in0.0 mm 0.00 in0.0 mm
10:03 AM 72.9°F22.7°C 63.9°F17.7°C 73% 1.6 mph SW2.6 kmh SW 4.0 mph6.4 kmh 30.24 in1024.0 mb 0.00 in0.0 mm 0.00 in0.0 mm 0.00 in0.0 mm
10:08 AM 73.1°F22.8°C 63.7°F17.6°C 72% 1.2 mph SW1.9 kmh SW 4.0 mph6.4 kmh 30.24 in1024.0 mb 0.00 in0.0 mm 0.00 in0.0 mm 0.00 in0.0 mm
10:13 AM 73.5°F23.1°C 64.5°F18.1°C 73% 1.0 mph SW1.6 kmh SW 4.0 mph6.4 kmh 30.24 in1024.0 mb 0.00 in0.0 mm 0.00 in0.0 mm 0.00 in0.0 mm
10:18 AM 74.3°F23.5°C 64.9°F18.3°C 72% 1.6 mph SSW2.6 kmh SSW 4.0 mph6.4 kmh 30.24 in1024.0 mb 0.00 in0.0 mm 0.00 in0.0 mm 0.00 in0.0 mm
10:23 AM 74.8°F23.8°C 64.6°F18.1°C 70% 1.6 mph SSE2.6 kmh SSE 3.0 mph4.8 kmh 30.24 in1024.0 mb 0.00 in0.0 mm 0.00 in0.0 mm 0.00 in0.0 mm
10:28 AM 75.2°F24.0°C 64.9°F18.3°C 70% Calm Calm 3.0 mph4.8 kmh 30.24 in1024.0 mb 0.00 in0.0 mm 0.00 in0.0 mm 0.00 in0.0 mm
10:33 AM 75.5°F24.2°C 64.4°F18.0°C 68% 1.7 mph WSW2.7 kmh WSW 4.0 mph6.4 kmh 30.24 in1024.0 mb 0.00 in0.0 mm 0.00 in0.0 mm 0.00 in0.0 mm
10:38 AM 75.5°F24.2°C 64.4°F18.0°C 68% 1.0 mph SW1.6 kmh SW 4.0 mph6.4 kmh 30.24 in1024.0 mb 0.00 in0.0 mm 0.00 in0.0 mm 0.00 in0.0 mm
10:43 AM 75.6°F24.2°C 63.2°F17.3°C 65% 1.0 mph WSW1.6 kmh WSW 4.0 mph6.4 kmh 30.24 in1024.0 mb 0.00 in0.0 mm 0.00 in0.0 mm 0.00 in0.0 mm
10:48 AM 76.1°F24.5°C 62.8°F17.1°C 63% 1.0 mph SW1.6 kmh SW 4.0 mph6.4 kmh 30.24 in1024.0 mb 0.00 in0.0 mm 0.00 in0.0 mm 0.00 in0.0 mm
10:53 AM 76.1°F24.5°C 62.4°F16.9°C 62% 1.5 mph SW2.4 kmh SW 3.0 mph4.8 kmh 30.24 in1024.0 mb 0.00 in0.0 mm 0.00 in0.0 mm 0.00 in0.0 mm
10:58 AM 76.5°F24.7°C 63.4°F17.4°C 64% 1.2 mph S1.9 kmh S 3.0 mph4.8 kmh 30.24 in1024.0 mb 0.00 in0.0 mm 0.00 in0.0 mm 0.00 in0.0 mm
11:03 AM 77.0°F25.0°C 63.7°F17.6°C 63% 1.0 mph SW1.6 kmh SW 3.0 mph4.8 kmh 30.23 in1023.7 mb 0.00 in0.0 mm 0.00 in0.0 mm 0.00 in0.0 mm
11:08 AM 77.4°F25.2°C 63.6°F17.6°C 62% 1.6 mph WSW2.6 kmh WSW 3.0 mph4.8 kmh 30.23 in1023.7 mb 0.00 in0.0 mm 0.00 in0.0 mm 0.00 in0.0 mm
11:13 AM 77.4°F25.2°C 63.6°F17.6°C 62% 1.0 mph SW1.6 kmh SW 3.0 mph4.8 kmh 30.23 in1023.7 mb 0.00 in0.0 mm 0.00 in0.0 mm 0.00 in0.0 mm
11:18 AM 78.1°F25.6°C 63.8°F17.7°C 61% Calm Calm 3.0 mph4.8 kmh 30.23 in1023.7 mb 0.00 in0.0 mm 0.00 in0.0 mm 0.00 in0.0 mm
11:23 AM 78.6°F25.9°C 62.8°F17.1°C 58% 1.0 mph W1.6 kmh W 3.0 mph4.8 kmh 30.23 in1023.7 mb 0.00 in0.0 mm 0.00 in0.0 mm 0.00 in0.0 mm
11:28 AM 78.5°F25.8°C 62.7°F17.1°C 58% 1.9 mph ENE3.1 kmh ENE 3.0 mph4.8 kmh 30.23 in1023.7 mb 0.00 in0.0 mm 0.00 in0.0 mm 0.00 in0.0 mm
11:33 AM 78.0°F25.6°C 62.0°F16.7°C 58% 2.1 mph ENE3.4 kmh ENE 4.0 mph6.4 kmh 30.23 in1023.7 mb 0.00 in0.0 mm 0.00 in0.0 mm 0.00 in0.0 mm
11:38 AM 77.9°F25.5°C 63.1°F17.3°C 60% 2.5 mph NE4.0 kmh NE 5.0 mph8.0 kmh 30.23 in1023.7 mb 0.00 in0.0 mm 0.00 in0.0 mm 0.00 in0.0 mm
11:43 AM 78.1°F25.6°C 63.3°F17.4°C 60% 3.0 mph ESE4.8 kmh ESE 5.0 mph8.0 kmh 30.23 in1023.7 mb 0.00 in0.0 mm 0.00 in0.0 mm 0.00 in0.0 mm
11:48 AM 78.4°F25.8°C 63.6°F17.6°C 60% 1.0 mph SSW1.6 kmh SSW 5.0 mph8.0 kmh 30.22 in1023.4 mb 0.00 in0.0 mm 0.00 in0.0 mm 0.00 in0.0 mm
11:53 AM 79.1°F26.2°C 63.3°F17.4°C 58% 1.4 mph ESE2.3 kmh ESE 5.0 mph8.0 kmh 30.22 in1023.4 mb 0.00 in0.0 mm 0.00 in0.0 mm 0.00 in0.0 mm
11:58 AM 79.3°F26.3°C 63.0°F17.2°C 57% 1.8 mph ESE2.9 kmh ESE 5.0 mph8.0 kmh 30.22 in1023.4 mb 0.00 in0.0 mm 0.00 in0.0 mm 0.00 in0.0 mm
12:03 PM 79.3°F26.3°C 62.4°F16.9°C 56% 1.3 mph SE2.1 kmh SE 7.0 mph11.3 kmh 30.22 in1023.4 mb 0.00 in0.0 mm 0.00 in0.0 mm 0.00 in0.0 mm
12:08 PM 79.8°F26.6°C 61.9°F16.6°C 54% 4.6 mph ENE7.4 kmh ENE 9.0 mph14.5 kmh 30.21 in1023.0 mb 0.00 in0.0 mm 0.00 in0.0 mm 0.00 in0.0 mm
12:13 PM 79.5°F26.4°C 62.1°F16.7°C 55% 3.7 mph E6.0 kmh E 9.0 mph14.5 kmh 30.21 in1023.0 mb 0.00 in0.0 mm 0.00 in0.0 mm 0.00 in0.0 mm
12:18 PM 79.4°F26.3°C 61.5°F16.4°C 54% 3.0 mph E4.8 kmh E 9.0 mph14.5 kmh 30.21 in1023.0 mb 0.00 in0.0 mm 0.00 in0.0 mm 0.00 in0.0 mm
12:23 PM 79.4°F26.3°C 60.9°F16.1°C 53% 4.1 mph NE6.6 kmh NE 9.0 mph14.5 kmh 30.20 in1022.7 mb 0.00 in0.0 mm 0.00 in0.0 mm 0.00 in0.0 mm
12:28 PM 79.6°F26.4°C 61.1°F16.2°C 53% 1.7 mph NE2.7 kmh NE 10.0 mph16.1 kmh 30.20 in1022.7 mb 0.00 in0.0 mm 0.00 in0.0 mm 0.00 in0.0 mm
12:33 PM 79.7°F26.5°C 60.0°F15.6°C 51% 6.2 mph E10.0 kmh E 10.0 mph16.1 kmh 30.20 in1022.7 mb 0.00 in0.0 mm 0.00 in0.0 mm 0.00 in0.0 mm
12:38 PM 79.8°F26.6°C 59.6°F15.3°C 50% 3.1 mph SSE5.0 kmh SSE 10.0 mph16.1 kmh 30.20 in1022.7 mb 0.00 in0.0 mm 0.00 in0.0 mm 0.00 in0.0 mm
12:43 PM 80.3°F26.8°C 61.1°F16.2°C 52% 2.2 mph NE3.5 kmh NE 10.0 mph16.1 kmh 30.20 in1022.7 mb 0.00 in0.0 mm 0.00 in0.0 mm 0.00 in0.0 mm
12:48 PM 80.3°F26.8°C 61.2°F16.2°C 52% 4.7 mph ESE7.6 kmh ESE 10.0 mph16.1 kmh 30.20 in1022.7 mb 0.00 in0.0 mm 0.00 in0.0 mm 0.00 in0.0 mm
12:53 PM 80.1°F26.7°C 61.6°F16.4°C 53% 3.8 mph ESE6.1 kmh ESE 10.0 mph16.1 kmh 30.20 in1022.7 mb 0.00 in0.0 mm 0.00 in0.0 mm 0.00 in0.0 mm
12:58 PM 80.0°F26.7°C 60.9°F16.1°C 52% 5.0 mph E8.0 kmh E 10.0 mph16.1 kmh 30.19 in1022.4 mb 0.00 in0.0 mm 0.00 in0.0 mm 0.00 in0.0 mm
01:03 PM 80.0°F26.7°C 60.4°F15.8°C 51% 4.6 mph ENE7.4 kmh ENE 10.0 mph16.1 kmh 30.19 in1022.4 mb 0.00 in0.0 mm 0.00 in0.0 mm 0.00 in0.0 mm
01:08 PM 80.2°F26.8°C 60.6°F15.9°C 51% 4.2 mph NE6.8 kmh NE 12.0 mph19.3 kmh 30.19 in1022.4 mb 0.00 in0.0 mm 0.00 in0.0 mm 0.00 in0.0 mm
01:13 PM 80.5°F26.9°C 60.3°F15.7°C 50% 6.3 mph NE10.1 kmh NE 12.0 mph19.3 kmh 30.18 in1022.0 mb 0.00 in0.0 mm 0.00 in0.0 mm 0.00 in0.0 mm
01:18 PM 80.6°F27.0°C 60.4°F15.8°C 50% 5.8 mph NE9.3 kmh NE 13.0 mph20.9 kmh 30.18 in1022.0 mb 0.00 in0.0 mm 0.00 in0.0 mm 0.00 in0.0 mm
01:23 PM 80.6°F27.0°C 59.8°F15.4°C 49% 3.2 mph E5.1 kmh E 13.0 mph20.9 kmh 30.18 in1022.0 mb 0.00 in0.0 mm 0.00 in0.0 mm 0.00 in0.0 mm
01:28 PM 80.8°F27.1°C 59.9°F15.5°C 49% 4.9 mph ENE7.9 kmh ENE 14.0 mph22.5 kmh 30.18 in1022.0 mb 0.00 in0.0 mm 0.00 in0.0 mm 0.00 in0.0 mm
01:33 PM 80.9°F27.2°C 60.6°F15.9°C 50% 6.1 mph ENE9.8 kmh ENE 14.0 mph22.5 kmh 30.17 in1021.7 mb 0.00 in0.0 mm 0.00 in0.0 mm 0.00 in0.0 mm
01:38 PM 80.7°F27.1°C 61.0°F16.1°C 51% 2.3 mph E3.7 kmh E 14.0 mph22.5 kmh 30.17 in1021.7 mb 0.00 in0.0 mm 0.00 in0.0 mm 0.00 in0.0 mm
01:43 PM 80.8°F27.1°C 60.0°F15.6°C 49% 4.2 mph NE6.8 kmh NE 14.0 mph22.5 kmh 30.17 in1021.7 mb 0.00 in0.0 mm 0.00 in0.0 mm 0.00 in0.0 mm
01:48 PM 81.0°F27.2°C 60.1°F15.6°C 49% 1.9 mph SSW3.1 kmh SSW 11.0 mph17.7 kmh 30.16 in1021.3 mb 0.00 in0.0 mm 0.00 in0.0 mm 0.00 in0.0 mm
01:53 PM 82.0°F27.8°C 60.5°F15.8°C 48% 5.3 mph E8.5 kmh E 9.0 mph14.5 kmh 30.16 in1021.3 mb 0.00 in0.0 mm 0.00 in0.0 mm 0.00 in0.0 mm
01:58 PM 81.8°F27.7°C 60.3°F15.7°C 48% 4.0 mph SE6.4 kmh SE 11.0 mph17.7 kmh 30.16 in1021.3 mb 0.00 in0.0 mm 0.00 in0.0 mm 0.00 in0.0 mm
02:03 PM 82.3°F27.9°C 61.3°F16.3°C 49% 2.5 mph E4.0 kmh E 11.0 mph17.7 kmh 30.15 in1021.0 mb 0.00 in0.0 mm 0.00 in0.0 mm 0.00 in0.0 mm
02:08 PM 82.7°F28.2°C 59.2°F15.1°C 45% 3.1 mph ENE5.0 kmh ENE 11.0 mph17.7 kmh 30.15 in1021.0 mb 0.00 in0.0 mm 0.00 in0.0 mm 0.00 in0.0 mm
02:13 PM 82.6°F28.1°C 59.1°F15.1°C 45% 3.6 mph ENE5.8 kmh ENE 11.0 mph17.7 kmh 30.15 in1021.0 mb 0.00 in0.0 mm 0.00 in0.0 mm 0.00 in0.0 mm
02:18 PM 83.0°F28.3°C 60.1°F15.6°C 46% 2.4 mph ESE3.9 kmh ESE 7.0 mph11.3 kmh 30.15 in1021.0 mb 0.00 in0.0 mm 0.00 in0.0 mm 0.00 in0.0 mm
02:23 PM 83.3°F28.5°C 58.5°F14.7°C 43% 3.8 mph E6.1 kmh E 8.0 mph12.9 kmh 30.15 in1021.0 mb 0.00 in0.0 mm 0.00 in0.0 mm 0.00 in0.0 mm
02:28 PM 83.2°F28.4°C 59.0°F15.0°C 44% 2.7 mph E4.3 kmh E 8.0 mph12.9 kmh 30.14 in1020.7 mb 0.00 in0.0 mm 0.00 in0.0 mm 0.00 in0.0 mm
02:33 PM 83.4°F28.6°C 59.2°F15.1°C 44% 3.3 mph NE5.3 kmh NE 8.0 mph12.9 kmh 30.14 in1020.7 mb 0.00 in0.0 mm 0.00 in0.0 mm 0.00 in0.0 mm
02:38 PM 83.4°F28.6°C 59.2°F15.1°C 44% 4.1 mph E6.6 kmh E 9.0 mph14.5 kmh 30.14 in1020.7 mb 0.00 in0.0 mm 0.00 in0.0 mm 0.00 in0.0 mm
02:42 PM 83.2°F28.4°C 58.4°F14.7°C 43% 5.4 mph ENE8.7 kmh ENE 12.0 mph19.3 kmh 30.14 in1020.7 mb 0.00 in0.0 mm 0.00 in0.0 mm 0.00 in0.0 mm
02:47 PM 83.1°F28.4°C 58.3°F14.6°C 43% 3.9 mph E6.3 kmh E 12.0 mph19.3 kmh 30.13 in1020.3 mb 0.00 in0.0 mm 0.00 in0.0 mm 0.00 in0.0 mm
02:52 PM 82.9°F28.3°C 58.7°F14.8°C 44% 4.0 mph ENE6.4 kmh ENE 12.0 mph19.3 kmh 30.13 in1020.3 mb 0.00 in0.0 mm 0.00 in0.0 mm 0.00 in0.0 mm
02:57 PM 83.3°F28.5°C 58.5°F14.7°C 43% 5.9 mph E9.5 kmh E 12.0 mph19.3 kmh 30.13 in1020.3 mb 0.00 in0.0 mm 0.00 in0.0 mm 0.00 in0.0 mm
03:02 PM 83.2°F28.4°C 58.4°F14.7°C 43% 2.7 mph E4.3 kmh E 12.0 mph19.3 kmh 30.13 in1020.3 mb 0.00 in0.0 mm 0.00 in0.0 mm 0.00 in0.0 mm
03:07 PM 83.6°F28.7°C 58.7°F14.8°C 43% 3.1 mph E5.0 kmh E 12.0 mph19.3 kmh 30.13 in1020.3 mb 0.00 in0.0 mm 0.00 in0.0 mm 0.00 in0.0 mm
03:12 PM 84.2°F29.0°C 59.3°F15.2°C 43% 5.3 mph E8.5 kmh E 12.0 mph19.3 kmh 30.12 in1020.0 mb 0.00 in0.0 mm 0.00 in0.0 mm 0.00 in0.0 mm
03:17 PM 84.3°F29.1°C 60.0°F15.6°C 44% 2.1 mph SSE3.4 kmh SSE 8.0 mph12.9 kmh 30.12 in1020.0 mb 0.00 in0.0 mm 0.00 in0.0 mm 0.00 in0.0 mm
03:22 PM 85.0°F29.4°C 60.7°F15.9°C 44% 1.7 mph SSW2.7 kmh SSW 8.0 mph12.9 kmh 30.12 in1020.0 mb 0.00 in0.0 mm 0.00 in0.0 mm 0.00 in0.0 mm
03:27 PM 85.2°F29.6°C 60.2°F15.7°C 43% 2.8 mph E4.5 kmh E 8.0 mph12.9 kmh 30.11 in1019.6 mb 0.00 in0.0 mm 0.00 in0.0 mm 0.00 in0.0 mm
03:32 PM 84.8°F29.3°C 59.1°F15.1°C 42% 3.9 mph NE6.3 kmh NE 9.0 mph14.5 kmh 30.11 in1019.6 mb 0.00 in0.0 mm 0.00 in0.0 mm 0.00 in0.0 mm
03:37 PM 85.1°F29.5°C 59.4°F15.2°C 42% 2.8 mph ENE4.5 kmh ENE 10.0 mph16.1 kmh 30.11 in1019.6 mb 0.00 in0.0 mm 0.00 in0.0 mm 0.00 in0.0 mm
03:42 PM 85.3°F29.6°C 59.6°F15.3°C 42% 4.8 mph ESE7.7 kmh ESE 10.0 mph16.1 kmh 30.11 in1019.6 mb 0.00 in0.0 mm 0.00 in0.0 mm 0.00 in0.0 mm
03:47 PM 84.8°F29.3°C 58.5°F14.7°C 41% 4.5 mph ENE7.2 kmh ENE 11.0 mph17.7 kmh 30.11 in1019.6 mb 0.00 in0.0 mm 0.00 in0.0 mm 0.00 in0.0 mm
03:52 PM 84.6°F29.2°C 59.0°F15.0°C 42% 1.7 mph E2.7 kmh E 11.0 mph17.7 kmh 30.11 in1019.6 mb 0.00 in0.0 mm 0.00 in0.0 mm 0.00 in0.0 mm
03:57 PM 85.1°F29.5°C 60.1°F15.6°C 43% 1.4 mph NNE2.3 kmh NNE 11.0 mph17.7 kmh 30.10 in1019.3 mb 0.00 in0.0 mm 0.00 in0.0 mm 0.00 in0.0 mm
04:02 PM 85.0°F29.4°C 58.0°F14.4°C 40% 3.9 mph E6.3 kmh E 12.0 mph19.3 kmh 30.11 in1019.6 mb 0.00 in0.0 mm 0.00 in0.0 mm 0.00 in0.0 mm
04:07 PM 84.7°F29.3°C 58.4°F14.7°C 41% 4.4 mph NE7.1 kmh NE 12.0 mph19.3 kmh 30.10 in1019.3 mb 0.00 in0.0 mm 0.00 in0.0 mm 0.00 in0.0 mm
04:12 PM 84.8°F29.3°C 57.7°F14.3°C 40% 4.4 mph E7.1 kmh E 12.0 mph19.3 kmh 30.10 in1019.3 mb 0.00 in0.0 mm 0.00 in0.0 mm 0.00 in0.0 mm
04:17 PM 85.2°F29.6°C 58.1°F14.5°C 40% 2.6 mph NE4.2 kmh NE 12.0 mph19.3 kmh 30.10 in1019.3 mb 0.00 in0.0 mm 0.00 in0.0 mm 0.00 in0.0 mm
04:22 PM 85.2°F29.6°C 57.4°F14.1°C 39% 2.5 mph E4.0 kmh E 10.0 mph16.1 kmh 30.10 in1019.3 mb 0.00 in0.0 mm 0.00 in0.0 mm 0.00 in0.0 mm
04:27 PM 85.3°F29.6°C 56.7°F13.7°C 38% 4.7 mph SE7.6 kmh SE 10.0 mph16.1 kmh 30.10 in1019.3 mb 0.00 in0.0 mm 0.00 in0.0 mm 0.00 in0.0 mm
04:32 PM 85.0°F29.4°C 55.7°F13.2°C 37% 3.7 mph ENE6.0 kmh ENE 9.0 mph14.5 kmh 30.10 in1019.3 mb 0.00 in0.0 mm 0.00 in0.0 mm 0.00 in0.0 mm
04:37 PM 85.0°F29.4°C 56.5°F13.6°C 38% 3.1 mph E5.0 kmh E 9.0 mph14.5 kmh 30.10 in1019.3 mb 0.00 in0.0 mm 0.00 in0.0 mm 0.00 in0.0 mm
04:42 PM 85.2°F29.6°C 57.4°F14.1°C 39% 1.7 mph ENE2.7 kmh ENE 9.0 mph14.5 kmh 30.10 in1019.3 mb 0.00 in0.0 mm 0.00 in0.0 mm 0.00 in0.0 mm
04:47 PM 85.6°F29.8°C 56.3°F13.5°C 37% 1.3 mph SE2.1 kmh SE 9.0 mph14.5 kmh 30.10 in1019.3 mb 0.00 in0.0 mm 0.00 in0.0 mm 0.00 in0.0 mm
04:52 PM 86.5°F30.3°C 57.1°F13.9°C 37% 2.2 mph SSW3.5 kmh SSW 6.0 mph9.7 kmh 30.10 in1019.3 mb 0.00 in0.0 mm 0.00 in0.0 mm 0.00 in0.0 mm
04:57 PM 86.5°F30.3°C 57.1°F13.9°C 37% 1.5 mph SSW2.4 kmh SSW 5.0 mph8.0 kmh 30.10 in1019.3 mb 0.00 in0.0 mm 0.00 in0.0 mm 0.00 in0.0 mm
05:02 PM 86.3°F30.2°C 56.9°F13.8°C 37% 3.0 mph ENE4.8 kmh ENE 8.0 mph12.9 kmh 30.10 in1019.3 mb 0.00 in0.0 mm 0.00 in0.0 mm 0.00 in0.0 mm
05:07 PM 86.1°F30.1°C 57.5°F14.2°C 38% 4.4 mph NE7.1 kmh NE 8.0 mph12.9 kmh 30.10 in1019.3 mb 0.00 in0.0 mm 0.00 in0.0 mm 0.00 in0.0 mm
05:12 PM 85.7°F29.8°C 57.1°F13.9°C 38% 3.9 mph NE6.3 kmh NE 8.0 mph12.9 kmh 30.10 in1019.3 mb 0.00 in0.0 mm 0.00 in0.0 mm 0.00 in0.0 mm
05:17 PM 85.4°F29.7°C 57.6°F14.2°C 39% 5.7 mph NE9.2 kmh NE 12.0 mph19.3 kmh 30.09 in1019.0 mb 0.00 in0.0 mm 0.00 in0.0 mm 0.00 in0.0 mm
05:22 PM 85.6°F29.8°C 57.7°F14.3°C 39% 1.9 mph NE3.1 kmh NE 12.0 mph19.3 kmh 30.09 in1019.0 mb 0.00 in0.0 mm 0.00 in0.0 mm 0.00 in0.0 mm
05:27 PM 85.7°F29.8°C 57.8°F14.3°C 39% 3.6 mph NE5.8 kmh NE 12.0 mph19.3 kmh 30.09 in1019.0 mb 0.00 in0.0 mm 0.00 in0.0 mm 0.00 in0.0 mm
05:32 PM 85.4°F29.7°C 57.6°F14.2°C 39% 3.1 mph ENE5.0 kmh ENE 12.0 mph19.3 kmh 30.09 in1019.0 mb 0.00 in0.0 mm 0.00 in0.0 mm 0.00 in0.0 mm
05:37 PM 85.6°F29.8°C 57.7°F14.3°C 39% 2.0 mph ESE3.2 kmh ESE 9.0 mph14.5 kmh 30.09 in1019.0 mb 0.00 in0.0 mm 0.00 in0.0 mm 0.00 in0.0 mm
05:42 PM 85.3°F29.6°C 56.8°F13.8°C 38% 5.1 mph E8.2 kmh E 9.0 mph14.5 kmh 30.09 in1019.0 mb 0.00 in0.0 mm 0.00 in0.0 mm 0.00 in0.0 mm
05:47 PM 85.5°F29.7°C 57.7°F14.3°C 39% 1.3 mph ESE2.1 kmh ESE 8.0 mph12.9 kmh 30.09 in1019.0 mb 0.00 in0.0 mm 0.00 in0.0 mm 0.00 in0.0 mm
05:52 PM 85.4°F29.7°C 57.6°F14.2°C 39% 3.5 mph E5.6 kmh E 8.0 mph12.9 kmh 30.09 in1019.0 mb 0.00 in0.0 mm 0.00 in0.0 mm 0.00 in0.0 mm
05:57 PM 85.3°F29.6°C 57.5°F14.2°C 39% 1.9 mph E3.1 kmh E 8.0 mph12.9 kmh 30.09 in1019.0 mb 0.00 in0.0 mm 0.00 in0.0 mm 0.00 in0.0 mm
06:02 PM 85.4°F29.7°C 57.6°F14.2°C 39% 2.6 mph E4.2 kmh E 8.0 mph12.9 kmh 30.09 in1019.0 mb 0.00 in0.0 mm 0.00 in0.0 mm 0.00 in0.0 mm
06:07 PM 85.1°F29.5°C 56.6°F13.7°C 38% 3.8 mph SE6.1 kmh SE 8.0 mph12.9 kmh 30.09 in1019.0 mb 0.00 in0.0 mm 0.00 in0.0 mm 0.00 in0.0 mm
06:12 PM 85.0°F29.4°C 57.2°F14.0°C 39% 3.6 mph E5.8 kmh E 8.0 mph12.9 kmh 30.09 in1019.0 mb 0.00 in0.0 mm 0.00 in0.0 mm 0.00 in0.0 mm
06:17 PM 84.9°F29.4°C 57.1°F13.9°C 39% 3.7 mph NE6.0 kmh NE 8.0 mph12.9 kmh 30.09 in1019.0 mb 0.00 in0.0 mm 0.00 in0.0 mm 0.00 in0.0 mm
06:22 PM 84.9°F29.4°C 57.1°F13.9°C 39% 2.8 mph E4.5 kmh E 8.0 mph12.9 kmh 30.09 in1019.0 mb 0.00 in0.0 mm 0.00 in0.0 mm 0.00 in0.0 mm
06:27 PM 84.8°F29.3°C 57.0°F13.9°C 39% 3.1 mph E5.0 kmh E 7.0 mph11.3 kmh 30.09 in1019.0 mb 0.00 in0.0 mm 0.00 in0.0 mm 0.00 in0.0 mm
06:32 PM 84.8°F29.3°C 57.1°F13.9°C 39% 1.7 mph E2.7 kmh E 7.0 mph11.3 kmh 30.09 in1019.0 mb 0.00 in0.0 mm 0.00 in0.0 mm 0.00 in0.0 mm
06:37 PM 84.8°F29.3°C 57.7°F14.3°C 40% 1.3 mph E2.1 kmh E 6.0 mph9.7 kmh 30.09 in1019.0 mb 0.00 in0.0 mm 0.00 in0.0 mm 0.00 in0.0 mm
06:42 PM 84.8°F29.3°C 56.3°F13.5°C 38% 4.1 mph NE6.6 kmh NE 7.0 mph11.3 kmh 30.09 in1019.0 mb 0.00 in0.0 mm 0.00 in0.0 mm 0.00 in0.0 mm
06:47 PM 84.6°F29.2°C 56.8°F13.8°C 39% 3.2 mph E5.1 kmh E 9.0 mph14.5 kmh 30.09 in1019.0 mb 0.00 in0.0 mm 0.00 in0.0 mm 0.00 in0.0 mm
06:52 PM 84.5°F29.2°C 56.0°F13.3°C 38% 2.4 mph E3.9 kmh E 9.0 mph14.5 kmh 30.09 in1019.0 mb 0.00 in0.0 mm 0.00 in0.0 mm 0.00 in0.0 mm
06:57 PM 84.4°F29.1°C 56.7°F13.7°C 39% 1.8 mph E2.9 kmh E 9.0 mph14.5 kmh 30.09 in1019.0 mb 0.00 in0.0 mm 0.00 in0.0 mm 0.00 in0.0 mm
07:02 PM 84.2°F29.0°C 56.5°F13.6°C 39% 1.6 mph E2.6 kmh E 7.0 mph11.3 kmh 30.09 in1019.0 mb 0.00 in0.0 mm 0.00 in0.0 mm 0.00 in0.0 mm
07:07 PM 83.9°F28.8°C 56.9°F13.8°C 40% Calm Calm 7.0 mph11.3 kmh 30.09 in1019.0 mb 0.00 in0.0 mm 0.00 in0.0 mm 0.00 in0.0 mm
07:12 PM 83.7°F28.7°C 56.8°F13.8°C 40% 1.0 mph ESE1.6 kmh ESE 5.0 mph8.0 kmh 30.09 in1019.0 mb 0.00 in0.0 mm 0.00 in0.0 mm 0.00 in0.0 mm
07:17 PM 83.3°F28.5°C 56.4°F13.6°C 40% 1.3 mph E2.1 kmh E 5.0 mph8.0 kmh 30.09 in1019.0 mb 0.00 in0.0 mm 0.00 in0.0 mm 0.00 in0.0 mm
07:22 PM 83.0°F28.3°C 56.8°F13.8°C 41% 1.8 mph E2.9 kmh E 4.0 mph6.4 kmh 30.09 in1019.0 mb 0.00 in0.0 mm 0.00 in0.0 mm 0.00 in0.0 mm
07:27 PM 82.7°F28.2°C 56.6°F13.7°C 41% 1.0 mph ESE1.6 kmh ESE 4.0 mph6.4 kmh 30.09 in1019.0 mb 0.00 in0.0 mm 0.00 in0.0 mm 0.00 in0.0 mm
07:32 PM 82.5°F28.1°C 56.4°F13.6°C 41% Calm Calm 4.0 mph6.4 kmh 30.09 in1019.0 mb 0.00 in0.0 mm 0.00 in0.0 mm 0.00 in0.0 mm
07:37 PM 82.4°F28.0°C 56.3°F13.5°C 41% 1.0 mph E1.6 kmh E 4.0 mph6.4 kmh 30.09 in1019.0 mb 0.00 in0.0 mm 0.00 in0.0 mm 0.00 in0.0 mm
07:41 PM 82.3°F27.9°C 56.2°F13.4°C 41% 1.0 mph ENE1.6 kmh ENE 2.0 mph3.2 kmh 30.09 in1019.0 mb 0.00 in0.0 mm 0.00 in0.0 mm 0.00 in0.0 mm
07:46 PM 82.0°F27.8°C 56.6°F13.7°C 42% Calm Calm 1.0 mph1.6 kmh 30.09 in1019.0 mb 0.00 in0.0 mm 0.00 in0.0 mm 0.00 in0.0 mm
07:51 PM 81.8°F27.7°C 56.4°F13.6°C 42% Calm Calm 1.0 mph1.6 kmh 30.10 in1019.3 mb 0.00 in0.0 mm 0.00 in0.0 mm 0.00 in0.0 mm
07:56 PM 81.6°F27.6°C 56.3°F13.5°C 42% 1.0 mph E1.6 kmh E 1.0 mph1.6 kmh 30.10 in1019.3 mb 0.00 in0.0 mm 0.00 in0.0 mm 0.00 in0.0 mm
08:01 PM 81.5°F27.5°C 56.8°F13.8°C 43% 1.0 mph E1.6 kmh E 1.0 mph1.6 kmh 30.10 in1019.3 mb 0.00 in0.0 mm 0.00 in0.0 mm 0.00 in0.0 mm
08:06 PM 81.3°F27.4°C 56.7°F13.7°C 43% 1.0 mph E1.6 kmh E 1.0 mph1.6 kmh 30.10 in1019.3 mb 0.00 in0.0 mm 0.00 in0.0 mm 0.00 in0.0 mm
08:11 PM 81.2°F27.3°C 56.6°F13.7°C 43% 1.0 mph E1.6 kmh E 1.0 mph1.6 kmh 30.10 in1019.3 mb 0.00 in0.0 mm 0.00 in0.0 mm 0.00 in0.0 mm
08:16 PM 81.2°F27.3°C 56.6°F13.7°C 43% Calm Calm 1.0 mph1.6 kmh 30.10 in1019.3 mb 0.00 in0.0 mm 0.00 in0.0 mm 0.00 in0.0 mm
08:21 PM 80.9°F27.2°C 56.3°F13.5°C 43% Calm Calm 1.0 mph1.6 kmh 30.10 in1019.3 mb 0.00 in0.0 mm 0.00 in0.0 mm 0.00 in0.0 mm
08:26 PM 80.6°F27.0°C 56.7°F13.7°C 44% 1.0 mph E1.6 kmh E 1.0 mph1.6 kmh 30.10 in1019.3 mb 0.00 in0.0 mm 0.00 in0.0 mm 0.00 in0.0 mm
08:31 PM 80.4°F26.9°C 56.5°F13.6°C 44% Calm Calm 1.0 mph1.6 kmh 30.10 in1019.3 mb 0.00 in0.0 mm 0.00 in0.0 mm 0.00 in0.0 mm
08:36 PM 79.9°F26.6°C 56.0°F13.3°C 44% Calm Calm 1.0 mph1.6 kmh 30.10 in1019.3 mb 0.00 in0.0 mm 0.00 in0.0 mm 0.00 in0.0 mm
08:41 PM 79.2°F26.2°C 56.0°F13.3°C 45% Calm Calm 1.0 mph1.6 kmh 30.10 in1019.3 mb 0.00 in0.0 mm 0.00 in0.0 mm 0.00 in0.0 mm
08:46 PM 78.6°F25.9°C 56.1°F13.4°C 46% Calm Calm -- 30.10 in1019.3 mb 0.00 in0.0 mm 0.00 in0.0 mm 0.00 in0.0 mm
08:51 PM 78.3°F25.7°C 55.8°F13.2°C 46% Calm Calm -- 30.10 in1019.3 mb 0.00 in0.0 mm 0.00 in0.0 mm 0.00 in0.0 mm
08:56 PM 78.0°F25.6°C 56.2°F13.4°C 47% Calm Calm -- 30.10 in1019.3 mb 0.00 in0.0 mm 0.00 in0.0 mm 0.00 in0.0 mm
09:01 PM 77.9°F25.5°C 55.5°F13.1°C 46% Calm Calm -- 30.10 in1019.3 mb 0.00 in0.0 mm 0.00 in0.0 mm 0.00 in0.0 mm
09:06 PM 78.3°F25.7°C 55.2°F12.9°C 45% 1.0 mph ESE1.6 kmh ESE 1.0 mph1.6 kmh 30.11 in1019.6 mb 0.00 in0.0 mm 0.00 in0.0 mm 0.00 in0.0 mm
09:11 PM 78.8°F26.0°C 55.0°F12.8°C 44% Calm Calm 1.0 mph1.6 kmh 30.11 in1019.6 mb 0.00 in0.0 mm 0.00 in0.0 mm 0.00 in0.0 mm
09:16 PM 79.1°F26.2°C 54.7°F12.6°C 43% Calm Calm 1.0 mph1.6 kmh 30.10 in1019.3 mb 0.00 in0.0 mm 0.00 in0.0 mm 0.00 in0.0 mm
09:21 PM 79.4°F26.3°C 55.0°F12.8°C 43% 1.0 mph ESE1.6 kmh ESE 1.0 mph1.6 kmh 30.10 in1019.3 mb 0.00 in0.0 mm 0.00 in0.0 mm 0.00 in0.0 mm
09:26 PM 79.4°F26.3°C 54.3°F12.4°C 42% 1.0 mph ESE1.6 kmh ESE 1.0 mph1.6 kmh 30.11 in1019.6 mb 0.00 in0.0 mm 0.00 in0.0 mm 0.00 in0.0 mm
09:31 PM 79.4°F26.3°C 54.3°F12.4°C 42% 1.0 mph ESE1.6 kmh ESE 1.0 mph1.6 kmh 30.11 in1019.6 mb 0.00 in0.0 mm 0.00 in0.0 mm 0.00 in0.0 mm
09:36 PM 79.5°F26.4°C 54.4°F12.4°C 42% 1.0 mph ESE1.6 kmh ESE 1.0 mph1.6 kmh 30.11 in1019.6 mb 0.00 in0.0 mm 0.00 in0.0 mm 0.00 in0.0 mm
09:41 PM 79.4°F26.3°C 54.3°F12.4°C 42% Calm Calm 1.0 mph1.6 kmh 30.11 in1019.6 mb 0.00 in0.0 mm 0.00 in0.0 mm 0.00 in0.0 mm
09:46 PM 79.4°F26.3°C 53.6°F12.0°C 41% Calm Calm 1.0 mph1.6 kmh 30.11 in1019.6 mb 0.00 in0.0 mm 0.00 in0.0 mm 0.00 in0.0 mm
09:51 PM 79.1°F26.2°C 54.0°F12.2°C 42% Calm Calm 1.0 mph1.6 kmh 30.11 in1019.6 mb 0.00 in0.0 mm 0.00 in0.0 mm 0.00 in0.0 mm
09:56 PM 78.6°F25.9°C 53.5°F11.9°C 42% Calm Calm -- 30.11 in1019.6 mb 0.00 in0.0 mm 0.00 in0.0 mm 0.00 in0.0 mm
10:01 PM 78.5°F25.8°C 54.1°F12.3°C 43% Calm Calm -- 30.11 in1019.6 mb 0.00 in0.0 mm 0.00 in0.0 mm 0.00 in0.0 mm
10:06 PM 78.2°F25.7°C 53.9°F12.2°C 43% Calm Calm -- 30.12 in1020.0 mb 0.00 in0.0 mm 0.00 in0.0 mm 0.00 in0.0 mm
10:11 PM 77.7°F25.4°C 54.0°F12.2°C 44% Calm Calm -- 30.12 in1020.0 mb 0.00 in0.0 mm 0.00 in0.0 mm 0.00 in0.0 mm
10:16 PM 77.6°F25.3°C 54.6°F12.6°C 45% Calm Calm -- 30.12 in1020.0 mb 0.00 in0.0 mm 0.00 in0.0 mm 0.00 in0.0 mm
10:21 PM 77.9°F25.5°C 54.2°F12.3°C 44% Calm Calm -- 30.12 in1020.0 mb 0.00 in0.0 mm 0.00 in0.0 mm 0.00 in0.0 mm
10:26 PM 78.0°F25.6°C 54.3°F12.4°C 44% Calm Calm -- 30.12 in1020.0 mb 0.00 in0.0 mm 0.00 in0.0 mm 0.00 in0.0 mm
10:31 PM 78.3°F25.7°C 54.6°F12.6°C 44% Calm Calm -- 30.12 in1020.0 mb 0.00 in0.0 mm 0.00 in0.0 mm 0.00 in0.0 mm
10:36 PM 78.5°F25.8°C 54.8°F12.7°C 44% Calm Calm 1.0 mph1.6 kmh 30.12 in1020.0 mb 0.00 in0.0 mm 0.00 in0.0 mm 0.00 in0.0 mm
10:41 PM 78.3°F25.7°C 54.6°F12.6°C 44% 1.0 mph ESE1.6 kmh ESE 1.0 mph1.6 kmh 30.12 in1020.0 mb 0.00 in0.0 mm 0.00 in0.0 mm 0.00 in0.0 mm
10:46 PM 78.1°F25.6°C 55.0°F12.8°C 45% Calm Calm 1.0 mph1.6 kmh 30.12 in1020.0 mb 0.00 in0.0 mm 0.00 in0.0 mm 0.00 in0.0 mm
10:51 PM 77.7°F25.4°C 54.7°F12.6°C 45% 1.0 mph ESE1.6 kmh ESE 1.0 mph1.6 kmh 30.12 in1020.0 mb 0.00 in0.0 mm 0.00 in0.0 mm 0.00 in0.0 mm
10:56 PM 77.5°F25.3°C 55.1°F12.8°C 46% Calm Calm 1.0 mph1.6 kmh 30.12 in1020.0 mb 0.00 in0.0 mm 0.00 in0.0 mm 0.00 in0.0 mm
11:01 PM 77.3°F25.2°C 54.9°F12.7°C 46% Calm Calm 1.0 mph1.6 kmh 30.12 in1020.0 mb 0.00 in0.0 mm 0.00 in0.0 mm 0.00 in0.0 mm
11:06 PM 76.7°F24.8°C 55.0°F12.8°C 47% Calm Calm 1.0 mph1.6 kmh 30.12 in1020.0 mb 0.00 in0.0 mm 0.00 in0.0 mm 0.00 in0.0 mm
11:11 PM 76.0°F24.4°C 54.3°F12.4°C 47% Calm Calm 1.0 mph1.6 kmh 30.12 in1020.0 mb 0.00 in0.0 mm 0.00 in0.0 mm 0.00 in0.0 mm
11:16 PM 75.3°F24.1°C 54.9°F12.7°C 49% Calm Calm -- 30.12 in1020.0 mb 0.00 in0.0 mm 0.00 in0.0 mm 0.00 in0.0 mm
11:21 PM 74.7°F23.7°C 54.3°F12.4°C 49% Calm Calm -- 30.12 in1020.0 mb 0.00 in0.0 mm 0.00 in0.0 mm 0.00 in0.0 mm
11:26 PM 74.1°F23.4°C 54.4°F12.4°C 50% Calm Calm -- 30.12 in1020.0 mb 0.00 in0.0 mm 0.00 in0.0 mm 0.00 in0.0 mm
11:31 PM 73.4°F23.0°C 54.8°F12.7°C 52% Calm Calm -- 30.12 in1020.0 mb 0.00 in0.0 mm 0.00 in0.0 mm 0.00 in0.0 mm
11:36 PM 73.0°F22.8°C 54.4°F12.4°C 52% Calm Calm -- 30.11 in1019.6 mb 0.00 in0.0 mm 0.00 in0.0 mm 0.00 in0.0 mm
11:41 PM 72.7°F22.6°C 54.7°F12.6°C 53% Calm Calm -- 30.11 in1019.6 mb 0.00 in0.0 mm 0.00 in0.0 mm 0.00 in0.0 mm
11:46 PM 73.1°F22.8°C 55.1°F12.8°C 53% Calm Calm -- 30.11 in1019.6 mb 0.00 in0.0 mm 0.00 in0.0 mm 0.00 in0.0 mm
11:51 PM 74.2°F23.4°C 55.0°F12.8°C 51% Calm Calm -- 30.11 in1019.6 mb 0.00 in0.0 mm 0.00 in0.0 mm 0.00 in0.0 mm
11:56 PM 74.6°F23.7°C 54.8°F12.7°C 50% Calm Calm -- 30.11 in1019.6 mb 0.00 in0.0 mm 0.00 in0.0 mm 0.00 in0.0 mm